Time;durP1;ratioP1;P1;durP2;ratioP2;P2;SDS_P1;SDS_P2;PMS_P1;PMS_P2;Temp;Humidity;BMP_temperature;BMP_pressure;BME280_temperature;BME280_humidity;BME280_pressure;Samples;Min_cycle;Max_cycle;Signal;HPM_P1;HPM_P2
2022/01/13 00:02:21;;;;;;;30.00;14.20;;;6.40;99.90;;;;;;5013414;28;20897;-80
2022/01/13 00:04:47;;;;;;;30.03;13.13;;;6.40;99.90;;;;;;5016423;28;20744;-80
2022/01/13 00:07:13;;;;;;;25.80;14.60;;;6.40;99.90;;;;;;5015645;28;20288;-80
2022/01/13 00:09:39;;;;;;;27.73;13.40;;;6.40;99.90;;;;;;5010071;28;20655;-79
2022/01/13 00:12:08;;;;;;;23.57;13.03;;;6.50;99.90;;;;;;5007619;28;20612;-80
2022/01/13 00:24:46;;;;;;;29.30;14.53;;;6.90;99.90;;;;;;5012671;28;20612;-79
2022/01/13 00:27:13;;;;;;;29.00;13.83;;;6.60;99.90;;;;;;5012707;28;20646;-83
2022/01/13 00:29:42;;;;;;;27.53;14.00;;;6.60;99.90;;;;;;5013737;28;20716;-81
2022/01/13 00:32:09;;;;;;;31.00;14.13;;;6.60;99.90;;;;;;5012469;28;20612;-84
2022/01/13 00:34:35;;;;;;;25.50;14.40;;;6.70;99.90;;;;;;5010985;28;21159;-79
2022/01/13 00:37:01;;;;;;;26.73;14.60;;;6.60;99.90;;;;;;5014844;28;20641;-79
2022/01/13 00:39:27;;;;;;;28.23;13.90;;;6.60;99.90;;;;;;5013594;28;20701;-85
2022/01/13 00:41:52;;;;;;;26.03;12.87;;;6.50;99.90;;;;;;5009968;28;20202;-83
2022/01/13 00:44:20;;;;;;;28.97;14.10;;;6.60;99.90;;;;;;5010740;28;20617;-80
2022/01/13 00:46:57;;;;;;;26.20;13.13;;;6.60;99.90;;;;;;5008219;28;20225;-80
2022/01/13 00:49:23;;;;;;;28.30;14.10;;;6.60;99.90;;;;;;5007821;28;20664;-80
2022/01/13 00:51:49;;;;;;;28.67;14.27;;;6.60;99.90;;;;;;5011673;28;20666;-83
2022/01/13 00:54:15;;;;;;;28.73;13.73;;;6.70;99.90;;;;;;5010903;28;20660;-83
2022/01/13 00:56:43;;;;;;;27.50;13.27;;;6.70;99.90;;;;;;5012182;28;20681;-83
2022/01/13 00:59:12;;;;;;;25.77;13.60;;;6.70;99.90;;;;;;5010576;28;20228;-80
2022/01/13 01:01:41;;;;;;;29.50;14.30;;;6.60;99.90;;;;;;5010629;28;20636;-80
2022/01/13 01:04:08;;;;;;;25.80;13.30;;;6.60;99.90;;;;;;5012822;28;20604;-80
2022/01/13 01:06:34;;;;;;;30.93;14.10;;;6.70;99.90;;;;;;5010357;28;20712;-79
2022/01/13 01:09:00;;;;;;;33.90;14.63;;;6.70;99.90;;;;;;5004371;28;20866;-80
2022/01/13 01:11:26;;;;;;;26.70;12.80;;;6.80;99.90;;;;;;5007248;28;20613;-80
2022/01/13 01:13:54;;;;;;;34.90;15.63;;;6.80;99.90;;;;;;5006979;28;20608;-82
2022/01/13 01:16:20;;;;;;;28.73;14.20;;;6.80;99.90;;;;;;5010654;28;20656;-80
2022/01/13 01:28:50;;;;;;;35.10;15.50;;;6.70;99.90;;;;;;5008848;28;20716;-80
2022/01/13 01:31:18;;;;;;;26.60;12.77;;;6.70;99.90;;;;;;5009138;28;20675;-79
2022/01/13 01:33:55;;;;;;;38.23;15.30;;;6.80;99.90;;;;;;5007580;28;20758;-79
2022/01/13 01:36:21;;;;;;;33.73;15.00;;;6.80;99.90;;;;;;5008841;28;20640;-79
2022/01/13 01:38:51;;;;;;;30.80;14.50;;;6.80;99.90;;;;;;5015210;28;20849;-81
2022/01/13 01:41:26;;;;;;;33.33;15.07;;;6.80;99.90;;;;;;5009553;28;20913;-79
2022/01/13 01:43:56;;;;;;;31.37;15.73;;;6.80;99.90;;;;;;5011032;28;20576;-83
2022/01/13 01:46:21;;;;;;;29.57;14.90;;;6.80;99.90;;;;;;5009239;28;20647;-86
2022/01/13 01:48:47;;;;;;;33.90;15.00;;;6.80;99.90;;;;;;5009991;28;20918;-84
2022/01/13 01:51:13;;;;;;;31.13;14.83;;;6.90;99.90;;;;;;5007668;28;20181;-81
2022/01/13 01:53:39;;;;;;;34.90;16.47;;;6.80;99.90;;;;;;5010625;28;20224;-83
2022/01/13 01:56:09;;;;;;;35.23;16.03;;;6.80;99.90;;;;;;5011945;28;20224;-80
2022/01/13 01:58:36;;;;;;;31.20;15.30;;;6.80;99.90;;;;;;5010253;28;20679;-82
2022/01/13 02:01:02;;;;;;;30.43;14.47;;;6.80;99.90;;;;;;5010833;28;20673;-80
2022/01/13 02:03:29;;;;;;;31.73;15.83;;;6.80;99.90;;;;;;5010172;28;20731;-80
2022/01/13 02:05:56;;;;;;;28.90;14.43;;;6.80;99.90;;;;;;5012053;28;20732;-82
2022/01/13 02:08:21;;;;;;;32.30;14.90;;;6.80;99.90;;;;;;5011142;28;20706;-80
2022/01/13 02:10:48;;;;;;;28.70;14.57;;;6.80;99.90;;;;;;5007235;28;20612;-80
2022/01/13 02:13:19;;;;;;;31.23;15.67;;;6.90;99.90;;;;;;5012415;28;20197;-81
2022/01/13 02:16:02;;;;;;;29.20;14.30;;;6.80;99.90;;;;;;5007549;28;20676;-87
2022/01/13 02:18:34;;;;;;;26.40;14.80;;;6.80;99.90;;;;;;5008763;28;20603;-80
2022/01/13 02:21:01;;;;;;;29.80;15.90;;;6.80;99.90;;;;;;5011428;28;20612;-79
2022/01/13 02:23:37;;;;;;;30.50;15.87;;;6.80;99.90;;;;;;5010087;28;21207;-84
2022/01/13 02:26:04;;;;;;;26.70;13.30;;;6.80;99.90;;;;;;5009305;28;20671;-79
2022/01/13 02:28:30;;;;;;;37.63;15.70;;;6.80;99.90;;;;;;5006077;28;20986;-79
2022/01/13 02:30:56;;;;;;;28.57;14.47;;;6.80;99.90;;;;;;5007346;28;20628;-88
2022/01/13 02:33:22;;;;;;;30.03;14.53;;;6.80;99.90;;;;;;5003702;28;20215;-79
2022/01/13 02:35:47;;;;;;;30.97;14.43;;;6.80;99.90;;;;;;5010139;28;20648;-80
2022/01/13 02:38:13;;;;;;;30.53;15.60;;;6.80;99.90;;;;;;5010171;28;20185;-79
2022/01/13 02:40:40;;;;;;;33.23;14.43;;;6.80;99.90;;;;;;5009860;28;20194;-81
2022/01/13 02:43:06;;;;;;;31.63;15.30;;;6.80;99.90;;;;;;5007496;28;20691;-80
2022/01/13 02:45:35;;;;;;;32.53;15.70;;;6.90;99.90;;;;;;5013846;28;20675;-83
2022/01/13 02:48:27;;;;;;;32.80;14.60;;;6.90;99.90;;;;;;5009874;28;20623;-80
2022/01/13 02:50:54;;;;;;;33.90;15.23;;;6.90;99.90;;;;;;5010403;28;20663;-81
2022/01/13 02:53:20;;;;;;;26.07;14.50;;;7.00;99.90;;;;;;5009061;28;20621;-80
2022/01/13 02:55:45;;;;;;;31.10;14.70;;;6.90;99.90;;;;;;5027803;28;21207;-80
2022/01/13 02:58:15;;;;;;;31.50;14.40;;;6.90;99.90;;;;;;5009106;28;20658;-79
2022/01/13 03:00:41;;;;;;;34.50;15.77;;;6.90;99.90;;;;;;5004156;28;20189;-81
2022/01/13 03:03:07;;;;;;;31.00;14.93;;;6.90;99.90;;;;;;5006750;28;20639;-80
2022/01/13 03:05:37;;;;;;;29.33;15.03;;;6.90;99.90;;;;;;5009619;28;21147;-82
2022/01/13 03:08:04;;;;;;;30.80;14.40;;;6.90;99.90;;;;;;5011877;28;20239;-80
2022/01/13 03:10:29;;;;;;;29.03;14.37;;;6.90;99.90;;;;;;5007928;28;20731;-79
2022/01/13 03:12:59;;;;;;;32.80;14.53;;;6.90;99.90;;;;;;5010013;28;20640;-81
2022/01/13 03:15:24;;;;;;;29.77;14.67;;;6.90;99.90;;;;;;5010570;28;20201;-82
2022/01/13 03:17:50;;;;;;;33.37;15.50;;;6.90;99.90;;;;;;5012106;28;20624;-79
2022/01/13 03:20:16;;;;;;;34.10;14.50;;;6.50;99.90;;;;;;5010573;28;20236;-82
2022/01/13 03:22:41;;;;;;;28.27;12.80;;;6.90;99.90;;;;;;5007515;28;20228;-81
2022/01/13 03:25:09;;;;;;;31.73;13.87;;;6.90;99.90;;;;;;5009519;28;20806;-83
2022/01/13 03:27:35;;;;;;;35.60;14.80;;;6.90;99.90;;;;;;5006942;28;20234;-80
2022/01/13 03:30:05;;;;;;;32.47;14.90;;;7.00;99.90;;;;;;4978178;28;20691;-79
2022/01/13 03:32:30;;;;;;;28.37;14.37;;;7.00;99.90;;;;;;5010332;28;20178;-80
2022/01/13 03:34:56;;;;;;;32.17;14.50;;;7.00;99.90;;;;;;5012330;28;20767;-80
2022/01/13 03:37:22;;;;;;;26.53;13.60;;;7.00;99.90;;;;;;5013397;28;20248;-81
2022/01/13 03:39:48;;;;;;;27.93;14.20;;;7.00;99.90;;;;;;5009547;28;20268;-80
2022/01/13 03:42:14;;;;;;;29.93;14.40;;;7.00;99.90;;;;;;5011296;28;20209;-79
2022/01/13 03:44:39;;;;;;;28.47;13.20;;;7.10;99.90;;;;;;5012498;28;20732;-81
2022/01/13 03:47:05;;;;;;;27.30;14.17;;;7.00;99.90;;;;;;5011857;28;20205;-80
2022/01/13 03:49:32;;;;;;;28.93;14.50;;;7.00;99.90;;;;;;4991498;28;20228;-82
2022/01/13 03:52:02;;;;;;;22.97;12.30;;;7.00;99.90;;;;;;5011999;28;20182;-82
2022/01/13 03:54:35;;;;;;;28.07;14.30;;;7.00;99.90;;;;;;5014159;28;20609;-81
2022/01/13 03:57:09;;;;;;;26.00;12.93;;;7.10;99.90;;;;;;5012126;28;20651;-80
2022/01/13 04:00:12;;;;;;;28.73;13.50;;;7.10;99.90;;;;;;5010619;28;20640;-81
2022/01/13 04:02:38;;;;;;;25.43;14.20;;;7.10;99.90;;;;;;5014431;28;20678;-82
2022/01/13 04:05:04;;;;;;;28.73;15.43;;;7.00;99.90;;;;;;4995149;28;20665;-81
2022/01/13 04:07:29;;;;;;;31.90;14.20;;;7.10;99.90;;;;;;5008327;28;20185;-82
2022/01/13 04:09:55;;;;;;;31.43;13.90;;;7.10;99.90;;;;;;5012758;28;20224;-80
2022/01/13 04:12:23;;;;;;;35.00;13.93;;;7.10;99.90;;;;;;5011783;28;20285;-83
2022/01/13 04:14:54;;;;;;;25.63;14.37;;;7.10;99.90;;;;;;5010309;28;20262;-81
2022/01/13 04:17:21;;;;;;;24.33;12.03;;;7.10;99.90;;;;;;5010605;28;20652;-80
2022/01/13 04:19:47;;;;;;;26.63;13.37;;;7.10;99.90;;;;;;5006638;28;20721;-82
2022/01/13 04:22:14;;;;;;;28.03;13.73;;;7.20;99.90;;;;;;5006969;28;20612;-81
2022/01/13 04:24:47;;;;;;;29.77;13.70;;;7.10;99.90;;;;;;5017876;28;20718;-83
2022/01/13 04:27:23;;;;;;;29.00;15.20;;;7.10;99.90;;;;;;5015514;28;20667;-82
2022/01/13 04:30:00;;;;;;;34.70;14.40;;;7.10;99.90;;;;;;4989686;28;20636;-87
2022/01/13 04:32:26;;;;;;;30.00;14.50;;;7.10;99.90;;;;;;4985502;28;20623;-81
2022/01/13 04:34:51;;;;;;;26.50;14.60;;;7.10;99.90;;;;;;5012610;28;20624;-80
2022/01/13 04:37:17;;;;;;;27.93;13.40;;;7.10;99.90;;;;;;5012295;28;20283;-83
2022/01/13 04:39:42;;;;;;;30.20;14.60;;;7.10;99.90;;;;;;5012401;28;20240;-79
2022/01/13 04:42:10;;;;;;;28.23;14.33;;;7.10;99.90;;;;;;5010061;28;20190;-80
2022/01/13 04:44:36;;;;;;;33.93;14.27;;;7.00;99.90;;;;;;5012234;28;20205;-82
2022/01/13 04:47:07;;;;;;;30.33;14.30;;;7.10;99.90;;;;;;5027614;28;20701;-81
2022/01/13 04:49:33;;;;;;;24.23;13.80;;;7.10;99.90;;;;;;5010425;28;20217;-82
2022/01/13 04:51:58;;;;;;;28.03;14.10;;;7.10;99.90;;;;;;4989777;28;20978;-82
2022/01/13 04:54:24;;;;;;;28.53;12.87;;;7.20;99.90;;;;;;5011770;28;20267;-82
2022/01/13 04:59:15;;;;;;;31.97;14.70;;;7.20;99.90;;;;;;5006351;28;20323;-84
2022/01/13 05:01:41;;;;;;;27.50;13.90;;;7.20;99.90;;;;;;4997829;28;20213;-79
2022/01/13 05:04:07;;;;;;;30.27;14.87;;;7.10;99.90;;;;;;5010270;28;20202;-81
2022/01/13 05:06:33;;;;;;;29.17;14.93;;;7.10;99.90;;;;;;5010129;28;20214;-80
2022/01/13 05:08:59;;;;;;;29.90;14.97;;;7.10;99.90;;;;;;4997486;28;21831;-80
2022/01/13 05:11:25;;;;;;;29.70;14.30;;;7.20;99.90;;;;;;5004807;28;20727;-79
2022/01/13 05:13:51;;;;;;;24.07;14.30;;;7.10;99.90;;;;;;5011384;28;20205;-80
2022/01/13 05:16:30;;;;;;;34.43;15.80;;;7.10;99.90;;;;;;5009252;28;21018;-81
2022/01/13 05:21:45;;;;;;;30.03;14.50;;;7.10;99.90;;;;;;5013243;28;20596;-82
2022/01/13 05:24:12;;;;;;;28.17;13.53;;;7.10;99.90;;;;;;5008985;28;20718;-79
2022/01/13 05:26:37;;;;;;;25.23;14.60;;;7.20;99.90;;;;;;4998984;28;20773;-80
2022/01/13 05:29:04;;;;;;;32.50;15.20;;;7.20;99.90;;;;;;5010935;28;20650;-79
2022/01/13 05:31:30;;;;;;;29.40;15.00;;;7.20;99.90;;;;;;5006093;28;20643;-79
2022/01/13 05:33:55;;;;;;;30.63;14.73;;;7.20;99.90;;;;;;5007969;28;21254;-81
2022/01/13 05:36:21;;;;;;;29.40;15.40;;;7.10;99.90;;;;;;5011135;28;20717;-80
2022/01/13 05:38:47;;;;;;;34.60;15.07;;;7.10;99.90;;;;;;5011053;28;20225;-88
2022/01/13 05:41:13;;;;;;;31.33;15.67;;;7.10;99.90;;;;;;5007279;28;20213;-83
2022/01/13 05:43:38;;;;;;;26.37;14.67;;;7.10;99.90;;;;;;5001640;28;20220;-80
2022/01/13 05:46:04;;;;;;;33.33;14.67;;;7.10;99.90;;;;;;5009217;28;20547;-80
2022/01/13 05:48:31;;;;;;;27.10;14.27;;;7.10;99.90;;;;;;5001187;28;20236;-81
2022/01/13 05:50:57;;;;;;;32.87;15.10;;;7.20;99.90;;;;;;5008169;28;20652;-82
2022/01/13 05:53:23;;;;;;;30.00;16.40;;;7.20;99.90;;;;;;5008745;28;20621;-81
2022/01/13 05:55:49;;;;;;;29.90;16.00;;;7.20;99.90;;;;;;5001544;28;20718;-85
2022/01/13 05:58:14;;;;;;;30.07;16.30;;;7.20;99.90;;;;;;5002493;28;20208;-79
2022/01/13 06:00:40;;;;;;;30.93;16.43;;;7.20;99.90;;;;;;5002815;28;23843;-79
2022/01/13 06:03:06;;;;;;;31.70;15.00;;;7.20;99.90;;;;;;5004560;28;20194;-86
2022/01/13 06:05:32;;;;;;;33.90;16.37;;;7.20;99.90;;;;;;5008564;28;20222;-88
2022/01/13 06:07:58;;;;;;;34.93;16.27;;;7.20;99.90;;;;;;4996433;28;20182;-80
2022/01/13 06:10:24;;;;;;;31.43;15.80;;;7.30;99.90;;;;;;5001326;28;20625;-82
2022/01/13 06:12:52;;;;;;;31.40;14.83;;;7.30;99.90;;;;;;4996260;28;20755;-85
2022/01/13 06:15:23;;;;;;;35.60;16.00;;;7.30;99.90;;;;;;4989277;28;21144;-85
2022/01/13 06:17:51;;;;;;;32.93;16.43;;;7.30;99.90;;;;;;4994309;28;20709;-79
2022/01/13 06:20:18;;;;;;;30.33;15.57;;;7.40;99.90;;;;;;5002467;28;20632;-85
2022/01/13 06:22:45;;;;;;;25.53;13.53;;;7.40;99.90;;;;;;4994049;28;20615;-81
2022/01/13 06:25:12;;;;;;;36.13;15.03;;;7.40;99.90;;;;;;4980232;28;20710;-85
2022/01/13 06:27:38;;;;;;;29.00;14.30;;;7.60;99.90;;;;;;4996474;28;20959;-80
2022/01/13 06:30:07;;;;;;;29.07;12.80;;;7.50;99.90;;;;;;5000463;28;20636;-85
2022/01/13 06:32:33;;;;;;;27.93;15.30;;;7.50;99.90;;;;;;5003828;28;20690;-81
2022/01/13 06:34:58;;;;;;;27.03;14.30;;;7.50;99.90;;;;;;4995283;28;21046;-82
2022/01/13 06:37:24;;;;;;;26.67;13.67;;;7.50;99.90;;;;;;4970585;28;20227;-80
2022/01/13 06:39:49;;;;;;;30.07;14.87;;;7.60;99.90;;;;;;4994025;28;20229;-80
2022/01/13 06:42:16;;;;;;;26.63;15.07;;;7.50;99.90;;;;;;5001515;28;20208;-83
2022/01/13 06:44:42;;;;;;;23.90;14.10;;;7.50;99.90;;;;;;5002131;28;20209;-81
2022/01/13 06:47:07;;;;;;;27.27;14.50;;;7.50;99.90;;;;;;4998456;28;20726;-81
2022/01/13 06:49:33;;;;;;;25.40;13.13;;;7.50;99.90;;;;;;4997877;28;20643;-82
2022/01/13 06:52:00;;;;;;;29.10;13.90;;;7.50;99.90;;;;;;5007329;28;21010;-75
2022/01/13 06:54:25;;;;;;;25.27;14.23;;;7.50;99.90;;;;;;5001394;28;20620;-83
2022/01/13 06:56:52;;;;;;;30.90;14.60;;;7.50;99.90;;;;;;4987438;28;20682;-82
2022/01/13 06:59:19;;;;;;;33.70;16.07;;;7.50;99.90;;;;;;4994300;28;20755;-84
2022/01/13 07:01:46;;;;;;;27.87;13.57;;;7.60;99.90;;;;;;4990322;28;21829;-84
2022/01/13 07:04:13;;;;;;;28.93;13.43;;;7.60;99.90;;;;;;4983467;28;20614;-85
2022/01/13 07:06:40;;;;;;;29.70;14.20;;;7.70;99.90;;;;;;4989699;28;21488;-79
2022/01/13 07:09:09;;;;;;;32.90;14.07;;;7.60;99.90;;;;;;4998104;28;20632;-79
2022/01/13 07:11:35;;;;;;;30.03;14.30;;;7.60;99.90;;;;;;4990317;28;20648;-79
2022/01/13 07:14:00;;;;;;;27.10;14.20;;;7.60;99.90;;;;;;4997359;28;20624;-80
2022/01/13 07:16:26;;;;;;;26.67;13.70;;;7.60;99.90;;;;;;5000535;28;21320;-81
2022/01/13 07:18:52;;;;;;;26.03;13.70;;;7.60;99.90;;;;;;5004385;28;20227;-80
2022/01/13 07:21:19;;;;;;;26.53;13.60;;;7.60;99.90;;;;;;4985649;28;21194;-83
2022/01/13 07:23:45;;;;;;;27.57;13.00;;;7.60;99.90;;;;;;4999463;28;20300;-79
2022/01/13 07:26:10;;;;;;;31.07;14.50;;;7.60;99.90;;;;;;5002004;28;20667;-80
2022/01/13 07:28:36;;;;;;;28.27;13.13;;;7.60;99.90;;;;;;5005704;28;20895;-79
2022/01/13 07:31:02;;;;;;;27.40;13.30;;;7.60;99.90;;;;;;5000125;28;20189;-79
2022/01/13 07:33:28;;;;;;;24.37;13.30;;;7.70;99.90;;;;;;4998167;28;20190;-79
2022/01/13 07:35:54;;;;;;;31.40;14.40;;;7.60;99.90;;;;;;5002654;28;20201;-80
2022/01/13 07:38:20;;;;;;;31.40;14.23;;;7.60;99.90;;;;;;5003850;28;20619;-82
2022/01/13 07:40:45;;;;;;;31.60;13.93;;;7.60;99.90;;;;;;4986171;28;20625;-81
2022/01/13 07:43:11;;;;;;;27.07;14.00;;;7.70;99.90;;;;;;5001537;28;20201;-79
2022/01/13 07:45:37;;;;;;;27.67;15.63;;;7.70;99.90;;;;;;5003209;28;20209;-79
2022/01/13 07:48:02;;;;;;;28.27;14.90;;;7.60;99.90;;;;;;5000523;28;20534;-80
2022/01/13 07:50:28;;;;;;;25.07;12.57;;;7.60;99.90;;;;;;4999923;28;20725;-82
2022/01/13 07:52:54;;;;;;;25.00;13.27;;;7.60;99.90;;;;;;4999876;28;20204;-81
2022/01/13 07:55:19;;;;;;;25.47;13.53;;;7.50;99.90;;;;;;4989212;28;20213;-79
2022/01/13 07:57:45;;;;;;;24.93;14.10;;;7.60;99.90;;;;;;4966022;28;20673;-85
2022/01/13 08:00:13;;;;;;;29.60;14.43;;;7.60;99.90;;;;;;4994650;28;20236;-78
2022/01/13 08:02:39;;;;;;;28.83;13.90;;;7.60;99.90;;;;;;4998449;28;20644;-82
2022/01/13 08:05:05;;;;;;;31.27;14.83;;;7.60;99.90;;;;;;5002365;28;20798;-79
2022/01/13 08:07:31;;;;;;;24.07;13.03;;;7.60;99.90;;;;;;5004081;28;20632;-78
2022/01/13 08:09:57;;;;;;;25.90;14.10;;;7.60;99.90;;;;;;4998706;28;20637;-83
2022/01/13 08:12:22;;;;;;;27.20;14.40;;;7.60;99.90;;;;;;5004476;28;20244;-79
2022/01/13 08:14:50;;;;;;;29.07;14.37;;;7.60;99.90;;;;;;5001500;28;20293;-78
2022/01/13 08:19:45;;;;;;;24.20;14.03;;;7.60;99.90;;;;;;5011444;28;20220;-80
2022/01/13 08:20:05;;;;;;;28.97;14.60;;;7.60;99.90;;;;;;4973155;28;21065;-78
2022/01/13 08:22:30;;;;;;;24.63;13.63;;;7.60;99.90;;;;;;4999562;28;20779;-79
2022/01/13 08:24:56;;;;;;;27.00;14.17;;;7.60;99.90;;;;;;4997773;28;20724;-78
2022/01/13 08:27:21;;;;;;;22.07;13.77;;;7.60;99.90;;;;;;5001539;28;20329;-79
2022/01/13 08:29:47;;;;;;;30.00;14.30;;;7.50;99.90;;;;;;4999585;28;20226;-80
2022/01/13 08:32:13;;;;;;;25.47;14.30;;;7.50;99.90;;;;;;4993458;28;20185;-81
2022/01/13 08:34:39;;;;;;;27.27;15.10;;;7.50;99.90;;;;;;5000427;28;20275;-79
2022/01/13 08:37:04;;;;;;;25.10;14.67;;;7.50;99.90;;;;;;5005420;28;20219;-80
2022/01/13 08:39:32;;;;;;;23.90;13.13;;;7.50;99.90;;;;;;4996520;28;20640;-86
2022/01/13 08:41:57;;;;;;;26.33;14.33;;;7.40;99.90;;;;;;4979340;28;20184;-78
2022/01/13 08:44:23;;;;;;;31.40;16.20;;;7.40;99.90;;;;;;5007500;28;20629;-79
2022/01/13 08:46:49;;;;;;;24.40;13.77;;;7.50;99.90;;;;;;5000446;28;20237;-79
2022/01/13 08:49:15;;;;;;;29.97;14.77;;;7.50;99.90;;;;;;5001335;28;20283;-80
2022/01/13 08:51:40;;;;;;;32.93;15.40;;;7.50;99.90;;;;;;4993708;28;20285;-83
2022/01/13 08:54:06;;;;;;;32.20;15.50;;;7.40;99.90;;;;;;5001182;28;21251;-80
2022/01/13 08:56:32;;;;;;;27.77;14.23;;;7.40;99.90;;;;;;5003278;28;20213;-78
2022/01/13 08:58:57;;;;;;;22.83;11.50;;;7.40;99.90;;;;;;5006219;28;20225;-80
2022/01/13 09:01:23;;;;;;;22.60;13.57;;;7.30;99.90;;;;;;4995403;28;20182;-79
2022/01/13 09:03:48;;;;;;;23.63;12.80;;;7.30;99.90;;;;;;4996855;28;20190;-80
2022/01/13 09:06:14;;;;;;;23.73;14.07;;;7.30;99.90;;;;;;4999529;28;20217;-81
2022/01/13 09:08:40;;;;;;;28.57;14.33;;;7.40;99.90;;;;;;5002534;28;20765;-78
2022/01/13 09:11:06;;;;;;;21.77;13.53;;;7.30;99.90;;;;;;4988716;28;20194;-79
2022/01/13 09:13:36;;;;;;;25.40;14.30;;;7.40;99.90;;;;;;4996849;28;20723;-79
2022/01/13 09:16:04;;;;;;;28.90;14.17;;;7.30;99.90;;;;;;4998690;28;20209;-79
2022/01/13 09:19:12;;;;;;;27.70;14.50;;;7.30;99.90;;;;;;4997423;28;20622;-79
2022/01/13 09:21:18;;;;;;;25.53;12.90;;;7.30;99.90;;;;;;4988581;28;20620;-79
2022/01/13 09:23:44;;;;;;;29.50;13.83;;;7.30;99.90;;;;;;5000541;28;20620;-79
2022/01/13 09:26:09;;;;;;;26.47;12.57;;;7.30;99.90;;;;;;4997716;28;20217;-80
2022/01/13 09:28:35;;;;;;;25.53;13.33;;;7.50;99.90;;;;;;5000452;28;20256;-82
2022/01/13 09:31:01;;;;;;;22.73;12.23;;;7.30;99.90;;;;;;5000303;28;20189;-84
2022/01/13 09:33:27;;;;;;;24.20;13.27;;;7.30;99.90;;;;;;5004518;28;20209;-82
2022/01/13 09:35:53;;;;;;;27.30;13.40;;;7.30;99.90;;;;;;4996488;28;20673;-80
2022/01/13 09:38:18;;;;;;;24.03;13.50;;;7.20;99.90;;;;;;5003015;28;20276;-79
2022/01/13 09:40:46;;;;;;;25.20;13.10;;;7.20;99.90;;;;;;5000091;28;20220;-81
2022/01/13 09:43:12;;;;;;;25.20;13.90;;;7.30;99.90;;;;;;4999265;28;20204;-83
2022/01/13 09:45:40;;;;;;;20.93;13.00;;;7.30;99.90;;;;;;4998548;28;20675;-79
2022/01/13 09:48:06;;;;;;;24.50;13.33;;;7.20;99.90;;;;;;5003917;28;20626;-85
2022/01/13 09:50:32;;;;;;;27.30;12.80;;;7.20;99.90;;;;;;4999438;28;20679;-82
2022/01/13 09:53:00;;;;;;;23.73;13.77;;;7.20;99.90;;;;;;4983738;28;20617;-80
2022/01/13 09:55:26;;;;;;;23.57;13.63;;;7.20;99.90;;;;;;4996654;28;20751;-83
2022/01/13 09:57:52;;;;;;;25.13;12.97;;;7.30;99.90;;;;;;5002564;28;21361;-79
2022/01/13 10:00:22;;;;;;;23.00;11.43;;;7.20;99.90;;;;;;5000238;28;20225;-80
2022/01/13 10:02:48;;;;;;;22.87;12.50;;;7.20;99.90;;;;;;5007856;28;20620;-79
2022/01/13 10:05:18;;;;;;;26.83;13.80;;;7.20;99.90;;;;;;5003844;28;21784;-78
2022/01/13 10:07:46;;;;;;;20.77;12.90;;;7.20;99.90;;;;;;4999288;28;20631;-82
2022/01/13 10:10:15;;;;;;;25.60;13.37;;;7.30;99.90;;;;;;4984854;28;20818;-79
2022/01/13 10:12:59;;;;;;;25.60;14.50;;;7.30;99.90;;;;;;5013196;28;20664;-80
2022/01/13 10:18:09;;;;;;;25.67;13.70;;;7.30;99.90;;;;;;5000821;28;20643;-86
2022/01/13 10:20:35;;;;;;;24.47;11.83;;;7.10;99.90;;;;;;4998711;28;20776;-86
2022/01/13 10:23:08;;;;;;;24.63;13.87;;;7.30;99.90;;;;;;5005723;28;20200;-79
2022/01/13 10:25:36;;;;;;;24.57;13.20;;;7.40;99.90;;;;;;5000701;28;20339;-83
2022/01/13 10:28:15;;;;;;;24.13;12.03;;;7.20;99.90;;;;;;4988736;28;20621;-83
2022/01/13 10:30:43;;;;;;;23.63;13.90;;;7.30;99.90;;;;;;5004255;28;21964;-81
2022/01/13 10:33:24;;;;;;;26.87;14.37;;;7.30;99.90;;;;;;5000698;28;21176;-81
2022/01/13 10:35:53;;;;;;;26.83;13.07;;;7.50;99.90;;;;;;4994235;28;20735;-81
2022/01/13 10:38:20;;;;;;;25.57;13.47;;;7.30;99.90;;;;;;4997397;28;20700;-83
2022/01/13 10:40:52;;;;;;;22.07;13.30;;;7.30;99.90;;;;;;4998367;28;20671;-83
2022/01/13 10:43:22;;;;;;;23.07;13.63;;;7.30;99.90;;;;;;4993134;28;20948;-84
2022/01/13 10:45:56;;;;;;;25.60;13.30;;;7.30;99.90;;;;;;4994313;28;20763;-79
2022/01/13 10:48:30;;;;;;;23.87;13.17;;;7.40;99.90;;;;;;4997390;28;20638;-79
2022/01/13 10:51:07;;;;;;;22.27;13.70;;;7.40;99.90;;;;;;4999031;28;20634;-83
2022/01/13 10:53:37;;;;;;;23.87;14.20;;;7.40;99.90;;;;;;4996010;28;20600;-80
2022/01/13 10:56:09;;;;;;;28.90;13.60;;;7.40;99.90;;;;;;5000686;28;20642;-79
2022/01/13 10:58:41;;;;;;;24.77;13.00;;;7.40;99.90;;;;;;4998385;28;20631;-80
2022/01/13 11:01:10;;;;;;;25.07;13.73;;;7.40;99.90;;;;;;5003774;28;20631;-79
2022/01/13 11:03:39;;;;;;;22.80;13.70;;;7.30;99.90;;;;;;4977469;28;20629;-85
2022/01/13 11:06:06;;;;;;;24.13;12.33;;;7.40;99.90;;;;;;4995277;28;20672;-82
2022/01/13 11:08:43;;;;;;;21.33;13.00;;;7.40;99.90;;;;;;4994477;28;20639;-79
2022/01/13 11:11:26;;;;;;;22.30;12.07;;;7.40;99.90;;;;;;5000005;28;20598;-82
2022/01/13 11:14:06;;;;;;;24.47;11.77;;;7.40;99.90;;;;;;4995955;28;20599;-87
2022/01/13 11:16:34;;;;;;;24.77;12.53;;;7.40;99.90;;;;;;4990035;28;21000;-79
2022/01/13 11:19:00;;;;;;;21.30;12.73;;;7.50;99.90;;;;;;4997088;28;20735;-80
2022/01/13 11:21:28;;;;;;;26.27;13.60;;;7.50;99.90;;;;;;4995461;28;20616;-80
2022/01/13 11:23:55;;;;;;;21.67;12.27;;;7.50;99.90;;;;;;4994257;28;20628;-82
2022/01/13 11:26:27;;;;;;;24.40;12.20;;;7.50;99.90;;;;;;4999756;28;20676;-85
2022/01/13 11:28:54;;;;;;;21.03;12.47;;;7.50;99.90;;;;;;4995364;28;20648;-81
2022/01/13 11:31:19;;;;;;;23.70;12.93;;;7.50;99.90;;;;;;4999376;28;20612;-79
2022/01/13 11:33:45;;;;;;;20.60;11.73;;;7.50;99.90;;;;;;4967385;28;21027;-81
2022/01/13 11:36:12;;;;;;;23.53;12.57;;;7.50;99.90;;;;;;4993630;28;20300;-82
2022/01/13 11:38:51;;;;;;;21.97;13.20;;;7.50;99.90;;;;;;4996581;28;20229;-79
2022/01/13 11:41:17;;;;;;;22.00;12.17;;;7.50;99.90;;;;;;4997470;28;20715;-80
2022/01/13 11:43:43;;;;;;;27.10;12.07;;;7.60;99.90;;;;;;4995352;28;20756;-80
2022/01/13 11:46:19;;;;;;;25.90;12.20;;;7.50;99.90;;;;;;4994510;28;20229;-79
2022/01/13 11:49:15;;;;;;;22.17;12.90;;;7.60;99.90;;;;;;5001516;28;20227;-79
2022/01/13 11:51:55;;;;;;;20.70;11.37;;;7.60;99.90;;;;;;4996652;28;20631;-80
2022/01/13 11:54:34;;;;;;;25.07;12.07;;;7.60;99.90;;;;;;4985866;28;20771;-79
2022/01/13 11:57:21;;;;;;;21.17;11.90;;;7.60;99.90;;;;;;4990968;28;20657;-84
2022/01/13 11:59:56;;;;;;;21.50;12.50;;;7.70;99.90;;;;;;5004986;28;20640;-80
2022/01/13 12:02:30;;;;;;;25.00;12.37;;;7.70;99.90;;;;;;5003595;28;21024;-89
2022/01/13 12:05:17;;;;;;;22.57;12.03;;;7.70;99.90;;;;;;5001856;28;20653;-86
2022/01/13 12:07:50;;;;;;;25.47;12.60;;;7.70;99.90;;;;;;5013877;28;20595;-80
2022/01/13 12:10:34;;;;;;;20.60;12.30;;;7.60;99.90;;;;;;5012027;28;20632;-80
2022/01/13 12:13:20;;;;;;;22.30;12.37;;;7.50;99.90;;;;;;5001865;28;20628;-82
2022/01/13 12:15:45;;;;;;;22.60;12.97;;;7.50;99.90;;;;;;5005802;28;20659;-82
2022/01/13 12:18:11;;;;;;;21.63;12.17;;;7.50;99.90;;;;;;5023651;28;20698;-81
2022/01/13 12:20:41;;;;;;;26.13;14.07;;;7.60;99.90;;;;;;5007288;28;20240;-84
2022/01/13 12:23:45;;;;;;;22.40;13.50;;;7.50;99.90;;;;;;5007392;28;20201;-81
2022/01/13 12:26:34;;;;;;;24.23;13.53;;;7.70;99.90;;;;;;5005324;28;20709;-78
2022/01/13 12:29:09;;;;;;;20.60;12.73;;;7.70;99.90;;;;;;5010591;28;20635;-79
2022/01/13 12:31:34;;;;;;;25.70;13.70;;;7.70;99.90;;;;;;4999631;28;20604;-76
2022/01/13 12:34:00;;;;;;;24.50;13.13;;;7.70;99.90;;;;;;5002558;28;20974;-79
2022/01/13 12:36:25;;;;;;;21.37;12.70;;;7.70;99.90;;;;;;5004984;28;20233;-77
2022/01/13 12:38:58;;;;;;;25.50;12.60;;;7.80;99.90;;;;;;5000905;28;20225;-77
2022/01/13 12:41:26;;;;;;;23.83;12.23;;;7.80;99.90;;;;;;4980059;28;20201;-80
2022/01/13 12:44:12;;;;;;;27.90;13.97;;;7.80;99.90;;;;;;5003333;28;21183;-77
2022/01/13 12:46:39;;;;;;;27.93;13.70;;;7.90;99.90;;;;;;5004865;28;20656;-77
2022/01/13 12:49:05;;;;;;;25.40;14.43;;;7.90;99.90;;;;;;5005140;28;20621;-76
2022/01/13 12:51:31;;;;;;;24.43;12.77;;;8.00;99.90;;;;;;5000646;28;20699;-78
2022/01/13 12:53:57;;;;;;;20.67;13.10;;;8.00;99.90;;;;;;5007832;28;20780;-79
2022/01/13 12:56:26;;;;;;;24.57;13.37;;;8.00;99.90;;;;;;5005173;28;20214;-78
2022/01/13 12:58:55;;;;;;;27.17;14.23;;;8.10;99.90;;;;;;5007299;28;20632;-77
2022/01/13 13:01:27;;;;;;;25.50;12.90;;;8.00;99.90;;;;;;4990942;28;20620;-76
2022/01/13 13:04:08;;;;;;;24.20;14.07;;;8.10;99.90;;;;;;4977457;28;20749;-82
2022/01/13 13:06:37;;;;;;;27.00;14.27;;;8.20;99.90;;;;;;5004836;28;20663;-80
2022/01/13 13:09:14;;;;;;;25.33;13.87;;;8.10;99.90;;;;;;5006052;28;20632;-81
2022/01/13 13:11:43;;;;;;;27.07;14.60;;;8.20;99.90;;;;;;5008711;28;20623;-81